createdAt,value
2017-06-28T00:02:17.025Z,7.10
2017-06-28T00:04:43.314Z,7.27
2017-06-28T00:07:09.587Z,6.10
2017-06-28T00:09:35.835Z,3.70
2017-06-28T00:12:02.117Z,5.83
2017-06-28T00:14:28.428Z,5.87
2017-06-28T00:16:54.729Z,7.00
2017-06-28T00:19:20.999Z,3.83
2017-06-28T00:21:48.029Z,5.67
2017-06-28T00:24:14.292Z,6.57
2017-06-28T00:26:40.569Z,4.30
2017-06-28T00:29:06.833Z,3.73
2017-06-28T00:31:33.137Z,5.73
2017-06-28T00:33:59.397Z,4.53
2017-06-28T00:36:25.688Z,5.00
2017-06-28T00:38:51.952Z,5.50
2017-06-28T00:41:19.137Z,6.40
2017-06-28T00:43:45.401Z,4.63
2017-06-28T00:46:11.708Z,6.30
2017-06-28T00:48:37.993Z,5.23
2017-06-28T00:51:04.261Z,5.47
2017-06-28T00:53:30.541Z,4.90
2017-06-28T00:55:56.805Z,6.70
2017-06-28T00:58:23.080Z,4.63
2017-06-28T01:00:49.368Z,5.50
2017-06-28T01:03:15.645Z,6.57
2017-06-28T01:05:41.950Z,5.57
2017-06-28T01:08:08.295Z,8.13
2017-06-28T01:10:34.563Z,6.47
2017-06-28T01:13:00.854Z,5.00
2017-06-28T01:15:27.115Z,6.63
2017-06-28T01:17:53.363Z,5.73
2017-06-28T01:20:19.669Z,6.87
2017-06-28T01:22:46.672Z,5.27
2017-06-28T01:25:12.974Z,5.53
2017-06-28T01:27:39.264Z,6.40
2017-06-28T01:30:06.121Z,6.60
2017-06-28T01:32:39.582Z,5.33
2017-06-28T01:35:05.915Z,5.90
2017-06-28T01:37:32.184Z,6.47
2017-06-28T01:39:58.493Z,5.97
2017-06-28T01:42:32.426Z,5.23
2017-06-28T01:44:58.741Z,9.13
2017-06-28T01:47:25.047Z,6.20
2017-06-28T01:49:51.345Z,7.10
2017-06-28T01:52:17.633Z,5.60
2017-06-28T01:54:43.929Z,5.20
2017-06-28T01:57:10.215Z,7.50
2017-06-28T01:59:36.477Z,7.07
2017-06-28T02:02:02.793Z,5.17
2017-06-28T02:04:29.072Z,7.70
2017-06-28T02:06:56.118Z,5.47
2017-06-28T02:09:23.145Z,8.03
2017-06-28T02:11:49.425Z,5.73
2017-06-28T02:14:15.749Z,6.10
2017-06-28T02:16:42.033Z,6.67
2017-06-28T02:19:08.313Z,7.60
2017-06-28T02:21:34.569Z,6.47
2017-06-28T02:24:00.829Z,6.10
2017-06-28T02:26:27.081Z,5.00
2017-06-28T02:28:54.105Z,5.27
2017-06-28T02:31:20.360Z,9.30
2017-06-28T02:33:47.389Z,6.10
2017-06-28T02:36:14.421Z,6.00
2017-06-28T02:38:40.681Z,7.13
2017-06-28T02:41:07.693Z,7.03
2017-06-28T02:43:33.957Z,6.67
2017-06-28T02:46:00.989Z,9.37
2017-06-28T02:48:28.005Z,5.83
2017-06-28T02:50:54.293Z,6.03
2017-06-28T02:53:20.563Z,6.80
2017-06-28T02:55:46.849Z,6.97
2017-06-28T02:58:13.132Z,5.70
2017-06-28T03:00:39.414Z,4.40
2017-06-28T03:03:05.736Z,8.33
2017-06-28T03:05:32.752Z,7.50
2017-06-28T03:07:59.028Z,6.87
2017-06-28T03:10:25.313Z,6.47
2017-06-28T03:12:51.601Z,7.33
2017-06-28T03:15:17.920Z,6.13
2017-06-28T03:17:44.196Z,6.60
2017-06-28T03:20:10.475Z,4.50
2017-06-28T03:22:36.757Z,6.30
2017-06-28T03:25:03.037Z,5.87
2017-06-28T03:27:29.308Z,6.40
2017-06-28T03:29:56.359Z,7.77
2017-06-28T03:32:22.641Z,5.50
2017-06-28T03:34:48.938Z,7.90
2017-06-28T03:37:15.957Z,6.43
2017-06-28T03:39:42.221Z,5.50
2017-06-28T03:42:08.520Z,10.20
2017-06-28T03:44:34.806Z,8.97
2017-06-28T03:47:01.087Z,4.97
2017-06-28T03:49:34.226Z,6.20
2017-06-28T03:52:00.491Z,6.00
2017-06-28T03:54:26.771Z,5.23
2017-06-28T03:56:53.069Z,4.87
2017-06-28T03:59:19.500Z,7.87
2017-06-28T04:01:45.805Z,5.57
2017-06-28T04:04:12.081Z,5.23
2017-06-28T04:06:45.265Z,7.43
2017-06-28T04:09:12.279Z,7.33
2017-06-28T04:11:38.573Z,8.60
2017-06-28T04:14:04.851Z,5.60
2017-06-28T04:16:32.426Z,7.90
2017-06-28T04:18:58.710Z,5.90
2017-06-28T04:21:24.986Z,6.30
2017-06-28T04:23:51.995Z,5.63
2017-06-28T04:26:18.273Z,7.80
2017-06-28T04:28:44.561Z,7.87
2017-06-28T04:31:10.852Z,6.97
2017-06-28T04:33:37.138Z,7.20
2017-06-28T04:36:04.138Z,6.67
2017-06-28T04:38:30.428Z,6.07
2017-06-28T04:40:56.713Z,6.83
2017-06-28T04:43:23.029Z,6.10
2017-06-28T04:45:49.321Z,9.07
2017-06-28T04:48:15.609Z,6.30
2017-06-28T04:50:41.887Z,7.30
2017-06-28T04:53:08.221Z,5.67
2017-06-28T04:55:34.520Z,8.50
2017-06-28T04:58:00.852Z,6.73
2017-06-28T05:00:27.880Z,5.77
2017-06-28T05:02:54.183Z,7.30
2017-06-28T05:05:20.493Z,7.80
2017-06-28T05:07:46.781Z,5.80
2017-06-28T05:10:13.816Z,5.77
2017-06-28T05:12:40.406Z,6.57
2017-06-28T05:15:06.709Z,7.67
2017-06-28T05:17:33.720Z,5.43
2017-06-28T05:19:59.992Z,6.37
2017-06-28T05:22:27.021Z,9.07
2017-06-28T05:24:54.036Z,9.50
2017-06-28T05:27:20.315Z,8.17
2017-06-28T05:29:46.617Z,6.57
2017-06-28T05:32:12.905Z,8.27
2017-06-28T05:34:39.181Z,6.23
2017-06-28T05:37:06.297Z,5.20
2017-06-28T05:39:32.573Z,5.87
2017-06-28T05:41:59.609Z,5.70
2017-06-28T05:44:26.633Z,8.60
2017-06-28T05:46:52.916Z,9.10
2017-06-28T05:49:19.218Z,7.07
2017-06-28T05:51:45.545Z,7.10
2017-06-28T05:54:12.581Z,7.07
2017-06-28T05:56:38.870Z,6.47
2017-06-28T05:59:05.189Z,8.30
2017-06-28T06:01:31.492Z,5.73
2017-06-28T06:03:58.514Z,5.63
2017-06-28T06:06:24.813Z,5.97
2017-06-28T06:08:51.099Z,8.03
2017-06-28T06:11:18.120Z,6.70
2017-06-28T06:13:45.151Z,6.60
2017-06-28T06:16:11.453Z,5.80
2017-06-28T06:18:37.761Z,6.07
2017-06-28T06:21:04.088Z,6.43
2017-06-28T06:23:30.374Z,6.53
2017-06-28T06:25:56.662Z,5.20
2017-06-28T06:28:22.974Z,7.73
2017-06-28T06:30:49.252Z,7.00
2017-06-28T06:33:15.542Z,4.70
2017-06-28T06:35:41.817Z,5.57
2017-06-28T06:38:08.118Z,6.97
2017-06-28T06:40:34.427Z,6.60
2017-06-28T06:43:00.729Z,6.00
2017-06-28T06:45:26.988Z,5.30
2017-06-28T06:47:53.294Z,5.83
2017-06-28T06:50:20.340Z,5.80
2017-06-28T06:52:47.374Z,8.13
2017-06-28T06:55:13.662Z,6.17
2017-06-28T06:57:39.985Z,4.93
2017-06-28T07:00:06.273Z,5.43
2017-06-28T07:02:33.276Z,5.60
2017-06-28T07:04:59.553Z,6.03
2017-06-28T07:07:25.849Z,5.60
2017-06-28T07:09:52.135Z,5.63
2017-06-28T07:12:18.433Z,5.67
2017-06-28T07:14:44.722Z,6.20
2017-06-28T07:17:10.990Z,6.17
2017-06-28T07:19:38.045Z,7.07
2017-06-28T07:22:04.321Z,5.73
2017-06-28T07:24:30.618Z,5.37
2017-06-28T07:26:56.931Z,5.90
2017-06-28T07:29:23.940Z,5.87
2017-06-28T07:31:50.245Z,4.77
2017-06-28T07:34:16.538Z,4.77
2017-06-28T07:36:43.796Z,4.80
2017-06-28T07:39:10.817Z,5.93
2017-06-28T07:41:37.129Z,5.83
2017-06-28T07:44:03.406Z,4.90
2017-06-28T07:46:30.452Z,5.57
2017-06-28T07:48:56.715Z,4.47
2017-06-28T07:51:22.974Z,5.90
2017-06-28T07:53:49.272Z,5.27
2017-06-28T07:56:15.549Z,5.60
2017-06-28T07:58:41.831Z,4.10
2017-06-28T08:01:08.107Z,4.13
2017-06-28T08:03:34.382Z,5.40
2017-06-28T08:06:00.669Z,5.00
2017-06-28T08:08:26.963Z,3.80
2017-06-28T08:10:53.249Z,4.30
2017-06-28T08:13:19.542Z,5.70
2017-06-28T08:15:46.590Z,4.27
2017-06-28T08:18:12.861Z,4.20
2017-06-28T08:20:39.161Z,4.00
2017-06-28T08:23:05.432Z,4.33
2017-06-28T08:25:31.731Z,3.87
2017-06-28T08:27:58.791Z,4.47
2017-06-28T08:30:25.099Z,5.07
2017-06-28T08:32:52.158Z,4.67
2017-06-28T08:35:19.197Z,5.93
2017-06-28T08:37:46.217Z,6.50
2017-06-28T08:40:12.526Z,6.57
2017-06-28T08:42:38.821Z,5.30
2017-06-28T08:45:05.109Z,5.43
2017-06-28T08:47:31.418Z,7.80
2017-06-28T08:49:57.716Z,4.80
2017-06-28T08:52:24.009Z,10.57
2017-06-28T08:54:50.308Z,7.50
2017-06-28T08:57:16.642Z,5.40
2017-06-28T08:59:42.925Z,6.23
2017-06-28T09:02:09.202Z,8.70
2017-06-28T09:04:35.461Z,4.70
2017-06-28T09:07:01.772Z,4.80
2017-06-28T09:09:28.033Z,8.63
2017-06-28T09:11:55.043Z,5.90
2017-06-28T09:14:21.324Z,4.30
2017-06-28T09:16:47.620Z,4.67
2017-06-28T09:19:13.916Z,4.70
2017-06-28T09:21:40.199Z,4.30
2017-06-28T09:24:06.505Z,6.43
2017-06-28T09:26:33.555Z,4.70
2017-06-28T09:28:59.840Z,4.80
2017-06-28T09:31:26.157Z,4.80
2017-06-28T09:33:52.522Z,4.70
2017-06-28T09:36:18.809Z,4.87
2017-06-28T09:38:45.117Z,6.70
2017-06-28T09:41:12.128Z,4.40
2017-06-28T09:43:38.410Z,4.10
2017-06-28T09:46:04.725Z,4.20
2017-06-28T09:48:31.742Z,5.10
2017-06-28T09:50:58.026Z,4.70
2017-06-28T09:53:24.330Z,5.10
2017-06-28T09:55:51.361Z,4.63
2017-06-28T09:58:17.645Z,5.40
2017-06-28T10:00:43.956Z,4.93
2017-06-28T10:03:10.225Z,4.50
2017-06-28T10:05:36.504Z,4.27
2017-06-28T10:08:02.773Z,5.57
2017-06-28T10:10:29.084Z,4.73
2017-06-28T10:12:55.385Z,4.50
2017-06-28T10:15:21.709Z,5.63
2017-06-28T10:17:48.745Z,4.30
2017-06-28T10:20:15.021Z,6.60
2017-06-28T10:22:41.296Z,4.00
2017-06-28T10:25:07.607Z,4.77
2017-06-28T10:27:33.897Z,5.33
2017-06-28T10:30:00.182Z,4.20
2017-06-28T10:32:26.468Z,5.53
2017-06-28T10:34:52.776Z,4.30
2017-06-28T10:37:19.054Z,4.70
2017-06-28T10:39:45.345Z,4.23
2017-06-28T10:42:11.620Z,8.60
2017-06-28T10:44:37.909Z,6.20
2017-06-28T10:47:04.212Z,5.60
2017-06-28T10:49:30.501Z,5.10
2017-06-28T10:51:56.796Z,5.10
2017-06-28T10:54:23.085Z,4.33
2017-06-28T10:56:49.417Z,5.33
2017-06-28T10:59:16.495Z,5.20
2017-06-28T11:01:42.774Z,5.07
2017-06-28T11:04:09.091Z,4.67
2017-06-28T11:06:35.399Z,5.13
2017-06-28T11:09:01.667Z,5.83
2017-06-28T11:11:27.955Z,5.20
2017-06-28T11:13:54.277Z,5.50
2017-06-28T11:16:20.541Z,7.70
2017-06-28T11:18:46.836Z,5.40
2017-06-28T11:21:13.121Z,5.23
2017-06-28T11:23:39.383Z,5.67
2017-06-28T11:26:05.674Z,5.93
2017-06-28T11:28:31.959Z,6.93
2017-06-28T11:30:58.234Z,5.30
2017-06-28T11:33:24.502Z,5.43
2017-06-28T11:35:50.779Z,5.37
2017-06-28T11:38:17.109Z,5.27
2017-06-28T11:40:43.399Z,6.07
2017-06-28T11:43:09.677Z,6.83
2017-06-28T11:45:35.971Z,5.10
2017-06-28T11:48:03.082Z,5.50
2017-06-28T11:50:29.386Z,6.10
2017-06-28T11:52:55.684Z,5.60
2017-06-28T11:55:21.985Z,6.07
2017-06-28T11:57:48.273Z,5.87
2017-06-28T12:00:14.561Z,6.07
2017-06-28T12:02:40.869Z,5.77
2017-06-28T12:05:07.912Z,6.17
2017-06-28T12:07:34.219Z,5.77
2017-06-28T12:10:00.518Z,5.47
2017-06-28T12:12:26.805Z,5.00
2017-06-28T12:14:53.082Z,6.03
2017-06-28T12:17:19.379Z,5.37
2017-06-28T12:19:45.705Z,5.60
2017-06-28T12:22:11.989Z,5.83
2017-06-28T12:24:38.255Z,5.17
2017-06-28T12:27:04.585Z,4.97
2017-06-28T12:29:30.857Z,5.87
2017-06-28T12:31:57.141Z,6.03
2017-06-28T12:34:23.431Z,5.70
2017-06-28T12:36:49.712Z,5.33
2017-06-28T12:39:15.977Z,5.40
2017-06-28T12:41:42.277Z,6.37
2017-06-28T12:44:08.571Z,5.60
2017-06-28T12:46:35.620Z,6.00
2017-06-28T12:49:01.891Z,5.23
2017-06-28T12:51:28.166Z,5.10
2017-06-28T12:53:54.484Z,5.57
2017-06-28T12:56:20.760Z,5.53
2017-06-28T12:58:47.065Z,6.00
2017-06-28T13:01:14.111Z,5.43
2017-06-28T13:03:40.409Z,5.50
2017-06-28T13:06:06.686Z,5.90
2017-06-28T13:08:33.721Z,6.60
2017-06-28T13:11:00.778Z,6.20
2017-06-28T13:13:27.829Z,5.33
2017-06-28T13:15:54.847Z,5.03
2017-06-28T13:18:21.127Z,5.13
2017-06-28T13:20:47.442Z,5.60
2017-06-28T13:23:13.717Z,5.73
2017-06-28T13:25:40.001Z,6.00
2017-06-28T13:28:06.334Z,6.10
2017-06-28T13:30:32.623Z,5.43
2017-06-28T13:32:58.903Z,5.43
2017-06-28T13:35:25.209Z,6.50
2017-06-28T13:37:51.506Z,5.90
2017-06-28T13:40:17.809Z,6.20
2017-06-28T13:42:44.113Z,5.77
2017-06-28T13:45:10.425Z,6.47
2017-06-28T13:47:36.725Z,5.60
2017-06-28T13:50:03.002Z,5.67
2017-06-28T13:52:29.281Z,6.33
2017-06-28T13:54:55.553Z,6.10
2017-06-28T13:57:21.858Z,6.20
2017-06-28T13:59:48.885Z,5.50
2017-06-28T14:02:15.205Z,6.47
2017-06-28T14:04:43.267Z,6.20
2017-06-28T14:07:09.595Z,5.97
2017-06-28T14:09:35.912Z,5.97
2017-06-28T14:12:02.211Z,8.93
2017-06-28T14:14:28.522Z,6.10
2017-06-28T14:16:55.564Z,6.10
2017-06-28T14:19:21.838Z,6.30
2017-06-28T14:21:48.106Z,6.33
2017-06-28T14:24:14.419Z,7.10
2017-06-28T14:26:40.709Z,6.03
2017-06-28T14:29:07.008Z,7.83
2017-06-28T14:31:34.052Z,7.40
2017-06-28T14:34:00.330Z,6.30
2017-06-28T14:36:26.633Z,6.77
2017-06-28T14:38:52.945Z,6.30
2017-06-28T14:41:19.220Z,6.10
2017-06-28T14:43:52.538Z,6.30
2017-06-28T14:46:18.821Z,6.87
2017-06-28T14:48:45.123Z,6.60
2017-06-28T14:51:11.396Z,6.83
2017-06-28T14:53:37.662Z,6.50
2017-06-28T14:56:03.958Z,5.93
2017-06-28T14:58:30.231Z,7.73
2017-06-28T15:00:56.529Z,6.90
2017-06-28T15:03:22.809Z,7.10
2017-06-28T15:05:49.881Z,6.67
2017-06-28T15:08:16.183Z,7.00
2017-06-28T15:10:42.453Z,7.40
2017-06-28T15:13:08.742Z,6.70
2017-06-28T15:15:35.005Z,7.00
2017-06-28T15:18:01.284Z,7.20
2017-06-28T15:20:27.561Z,6.93
2017-06-28T15:22:53.852Z,7.50
2017-06-28T15:25:20.130Z,7.50
2017-06-28T15:27:46.426Z,6.87
2017-06-28T15:30:12.688Z,6.90
2017-06-28T15:32:38.979Z,7.03
2017-06-28T15:35:05.268Z,7.17
2017-06-28T15:37:31.545Z,6.80
2017-06-28T15:39:58.577Z,7.60
2017-06-28T15:42:24.858Z,7.00
2017-06-28T15:44:51.156Z,6.67
2017-06-28T15:47:18.188Z,7.50
2017-06-28T15:49:44.489Z,7.60
2017-06-28T15:52:10.781Z,8.00
2017-06-28T15:54:37.085Z,7.20
2017-06-28T15:57:03.358Z,7.37
2017-06-28T15:59:29.637Z,7.20
2017-06-28T16:01:55.962Z,7.53
2017-06-28T16:04:22.251Z,6.97
2017-06-28T16:06:48.535Z,7.30
2017-06-28T16:09:14.861Z,7.73
2017-06-28T16:11:41.176Z,8.10
2017-06-28T16:14:07.488Z,7.13
2017-06-28T16:16:33.777Z,7.10
2017-06-28T16:19:00.092Z,7.07
2017-06-28T16:21:26.388Z,8.20
2017-06-28T16:23:52.672Z,7.30
2017-06-28T16:26:18.960Z,7.70
2017-06-28T16:28:45.223Z,7.00
2017-06-28T16:31:11.524Z,7.40
2017-06-28T16:33:38.680Z,6.63
2017-06-28T16:36:05.034Z,7.00
2017-06-28T16:38:31.325Z,7.50
2017-06-28T16:40:57.607Z,8.03
2017-06-28T16:43:23.881Z,8.33
2017-06-28T16:45:50.189Z,7.20
2017-06-28T16:48:16.470Z,8.00
2017-06-28T16:50:42.728Z,6.90
2017-06-28T16:53:09.080Z,7.80
2017-06-28T16:55:35.359Z,7.23
2017-06-28T16:58:01.839Z,7.90
2017-06-28T17:00:28.277Z,7.90
2017-06-28T17:02:54.557Z,7.40
2017-06-28T17:05:21.558Z,8.47
2017-06-28T17:07:47.958Z,7.53
2017-06-28T17:10:14.268Z,8.10
2017-06-28T17:12:40.610Z,8.20
2017-06-28T17:15:06.887Z,8.80
2017-06-28T17:17:33.180Z,7.80
2017-06-28T17:19:59.441Z,8.27
2017-06-28T17:22:25.791Z,8.20
2017-06-28T17:24:52.060Z,8.90
2017-06-28T17:27:18.412Z,8.80
2017-06-28T17:29:44.756Z,9.20
2017-06-28T17:32:11.101Z,9.03
2017-06-28T17:34:37.387Z,8.67
2017-06-28T17:37:03.772Z,8.50
2017-06-28T17:39:30.028Z,9.33
2017-06-28T17:41:56.357Z,9.03
2017-06-28T17:44:22.809Z,9.90
2017-06-28T17:46:49.147Z,8.97
2017-06-28T17:49:15.438Z,9.37
2017-06-28T17:51:42.440Z,8.53
2017-06-28T17:54:08.736Z,8.90
2017-06-28T17:56:35.012Z,8.70
2017-06-28T17:59:01.316Z,10.17
2017-06-28T18:01:27.629Z,9.23
2017-06-28T18:03:54.702Z,8.70
2017-06-28T18:06:21.019Z,8.53
2017-06-28T18:08:47.294Z,8.83
2017-06-28T18:11:13.670Z,9.90
2017-06-28T18:13:40.659Z,8.57
2017-06-28T18:16:06.982Z,8.60
2017-06-28T18:18:34.022Z,8.20
2017-06-28T18:21:00.308Z,8.90
2017-06-28T18:23:26.573Z,9.40
2017-06-28T18:25:53.016Z,9.60
2017-06-28T18:28:19.349Z,8.97
2017-06-28T18:30:45.752Z,9.43
2017-06-28T18:33:12.079Z,9.33
2017-06-28T18:35:38.400Z,9.80
2017-06-28T18:38:04.669Z,8.80
2017-06-28T18:40:30.954Z,9.60
2017-06-28T18:42:57.243Z,8.47
2017-06-28T18:45:23.535Z,8.83
2017-06-28T18:47:49.825Z,8.67
2017-06-28T18:50:16.278Z,7.73
2017-06-28T18:52:42.900Z,8.60
2017-06-28T18:55:09.323Z,9.53
2017-06-28T18:57:35.676Z,8.03
2017-06-28T19:00:02.072Z,7.80
2017-06-28T19:02:28.417Z,8.00
2017-06-28T19:04:54.910Z,7.90
2017-06-28T19:07:21.183Z,8.57
2017-06-28T19:09:47.532Z,8.20
2017-06-28T19:12:13.833Z,8.27
2017-06-28T19:14:40.107Z,8.50
2017-06-28T19:17:06.359Z,8.63
2017-06-28T19:19:32.649Z,9.10
2017-06-28T19:21:58.922Z,8.37
2017-06-28T19:24:25.278Z,8.87
2017-06-28T19:26:51.549Z,9.30
2017-06-28T19:29:17.815Z,8.10
2017-06-28T19:31:44.237Z,8.83
2017-06-28T19:34:10.511Z,9.00
2017-06-28T19:36:36.885Z,8.90
2017-06-28T19:39:03.205Z,8.13
2017-06-28T19:41:29.521Z,8.70
2017-06-28T19:43:55.800Z,8.77
2017-06-28T19:46:22.145Z,9.40
2017-06-28T19:48:48.422Z,9.00
2017-06-28T19:51:14.713Z,9.90
2017-06-28T19:53:41.737Z,9.37
2017-06-28T19:56:08.045Z,9.13
2017-06-28T19:58:34.398Z,8.33
2017-06-28T20:01:00.668Z,8.30
2017-06-28T20:03:26.942Z,8.67
2017-06-28T20:05:53.216Z,9.23
2017-06-28T20:08:19.511Z,10.73
2017-06-28T20:10:45.777Z,9.77
2017-06-28T20:13:12.043Z,9.13
2017-06-28T20:15:38.381Z,9.27
2017-06-28T20:18:04.661Z,9.63
2017-06-28T20:20:30.959Z,9.10
2017-06-28T20:22:57.221Z,9.43
2017-06-28T20:25:23.498Z,9.10
2017-06-28T20:27:49.889Z,9.30
2017-06-28T20:30:16.177Z,8.60
2017-06-28T20:32:42.437Z,9.07
2017-06-28T20:35:08.729Z,9.57
2017-06-28T20:37:35.024Z,10.10
2017-06-28T20:40:01.316Z,10.37
2017-06-28T20:42:28.333Z,10.40
2017-06-28T20:44:54.614Z,9.33
2017-06-28T20:47:20.899Z,8.63
2017-06-28T20:49:47.175Z,9.50
2017-06-28T20:52:13.452Z,9.80
2017-06-28T20:54:39.680Z,9.23
2017-06-28T20:57:05.937Z,9.63
2017-06-28T20:59:32.934Z,9.40
2017-06-28T21:01:59.198Z,9.73
2017-06-28T21:04:26.239Z,9.40
2017-06-28T21:06:52.510Z,10.03
2017-06-28T21:09:18.808Z,9.67
2017-06-28T21:11:45.813Z,9.80
2017-06-28T21:14:12.101Z,10.00
2017-06-28T21:16:38.388Z,10.07
2017-06-28T21:19:04.673Z,10.10
2017-06-28T21:21:30.965Z,9.60
2017-06-28T21:23:57.234Z,10.23
2017-06-28T21:26:23.507Z,11.30
2017-06-28T21:28:49.766Z,9.47
2017-06-28T21:31:16.775Z,9.77
2017-06-28T21:33:43.045Z,10.93
2017-06-28T21:36:10.069Z,10.00
2017-06-28T21:38:36.345Z,10.47
2017-06-28T21:41:02.620Z,11.03
2017-06-28T21:43:28.880Z,10.93
2017-06-28T21:45:55.160Z,11.57
2017-06-28T21:48:21.431Z,10.70
2017-06-28T21:50:47.697Z,11.00
2017-06-28T21:53:13.977Z,10.57
2017-06-28T21:55:40.256Z,10.80
2017-06-28T21:58:06.538Z,10.50
2017-06-28T22:00:32.805Z,11.07
2017-06-28T22:02:59.107Z,11.03
2017-06-28T22:05:25.387Z,10.60
2017-06-28T22:07:51.634Z,11.57
2017-06-28T22:10:17.905Z,10.60
2017-06-28T22:12:44.178Z,10.93
2017-06-28T22:15:10.420Z,10.80
2017-06-28T22:17:36.716Z,11.73
2017-06-28T22:20:02.993Z,11.00
2017-06-28T22:22:29.249Z,10.40
2017-06-28T22:24:55.540Z,11.20
2017-06-28T22:27:21.813Z,11.40
2017-06-28T22:29:48.085Z,11.40
2017-06-28T22:32:14.356Z,11.30
2017-06-28T22:34:40.636Z,11.70
2017-06-28T22:37:06.894Z,11.03
2017-06-28T22:39:33.713Z,11.10
2017-06-28T22:41:59.940Z,11.20
2017-06-28T22:44:26.225Z,11.10
2017-06-28T22:46:52.489Z,11.20
2017-06-28T22:49:18.750Z,12.20
2017-06-28T22:51:45.002Z,12.67
2017-06-28T22:54:11.300Z,11.90
2017-06-28T22:56:37.568Z,12.13
2017-06-28T22:59:03.835Z,12.70
2017-06-28T23:01:30.105Z,12.57
2017-06-28T23:03:57.122Z,13.60
2017-06-28T23:06:23.413Z,12.03
2017-06-28T23:08:49.680Z,12.00
2017-06-28T23:11:15.954Z,12.97
2017-06-28T23:13:42.223Z,12.60
2017-06-28T23:16:08.498Z,13.07
2017-06-28T23:18:34.782Z,13.20
2017-06-28T23:21:01.074Z,13.50
2017-06-28T23:23:27.349Z,13.13
2017-06-28T23:25:53.636Z,12.63
2017-06-28T23:28:19.909Z,13.67
2017-06-28T23:30:46.164Z,14.17
2017-06-28T23:33:12.410Z,15.37
2017-06-28T23:35:38.669Z,13.87
2017-06-28T23:38:04.948Z,14.40
2017-06-28T23:40:31.229Z,15.77
2017-06-28T23:42:57.540Z,15.53
2017-06-28T23:45:23.834Z,15.67
2017-06-28T23:47:50.412Z,16.43
2017-06-28T23:50:16.717Z,14.57
2017-06-28T23:52:43.718Z,14.87
2017-06-28T23:55:09.965Z,13.90
2017-06-28T23:57:36.212Z,13.33
